createdAt,value
2019-03-12T00:01:30.228Z,5.70
2019-03-12T00:04:14.932Z,5.70
2019-03-12T00:07:00.011Z,5.60
2019-03-12T00:09:44.659Z,5.50
2019-03-12T00:12:28.853Z,5.50
2019-03-12T00:15:22.528Z,5.40
2019-03-12T00:18:06.832Z,5.40
2019-03-12T00:20:51.832Z,5.50
2019-03-12T00:23:36.299Z,5.40
2019-03-12T00:26:30.688Z,5.40
2019-03-12T00:29:15.540Z,5.50
2019-03-12T00:31:59.837Z,5.50
2019-03-12T00:34:52.888Z,5.50
2019-03-12T00:37:37.682Z,5.50
2019-03-12T00:40:22.485Z,5.50
2019-03-12T00:43:07.648Z,5.50
2019-03-12T00:45:52.488Z,5.40
2019-03-12T00:48:37.535Z,5.40
2019-03-12T00:51:31.466Z,5.40
2019-03-12T00:54:16.035Z,5.40
2019-03-12T00:57:00.547Z,5.40
2019-03-12T00:59:45.361Z,5.50
2019-03-12T01:02:29.856Z,5.50
2019-03-12T01:05:14.801Z,5.50
2019-03-12T01:07:59.696Z,5.50
2019-03-12T01:10:44.401Z,5.40
2019-03-12T01:13:28.992Z,5.40
2019-03-12T01:16:14.189Z,5.40
2019-03-12T01:18:58.929Z,5.40
2019-03-12T01:21:43.608Z,5.40
2019-03-12T01:24:28.436Z,5.30
2019-03-12T01:27:14.125Z,5.20
2019-03-12T01:30:10.881Z,5.20
2019-03-12T01:32:55.224Z,5.10
2019-03-12T01:35:40.112Z,4.90
2019-03-12T01:38:25.004Z,4.70
2019-03-12T01:41:09.872Z,4.90
2019-03-12T01:43:55.235Z,4.90
2019-03-12T01:46:48.748Z,4.90
2019-03-12T01:49:33.296Z,4.80
2019-03-12T01:52:18.473Z,4.90
2019-03-12T01:55:02.952Z,5.00
2019-03-12T01:57:47.544Z,5.20
2019-03-12T02:00:32.924Z,5.40
2019-03-12T02:03:17.706Z,5.50
2019-03-12T02:06:03.024Z,5.50
2019-03-12T02:08:56.488Z,5.60
2019-03-12T02:11:41.059Z,5.60
2019-03-12T02:14:26.350Z,5.70
2019-03-12T02:17:11.913Z,5.70
2019-03-12T02:19:57.032Z,5.70
2019-03-12T02:22:42.395Z,5.70
2019-03-12T02:25:27.532Z,5.70
2019-03-12T02:28:12.811Z,5.70
2019-03-12T02:30:57.484Z,5.60
2019-03-12T02:33:50.953Z,5.60
2019-03-12T02:36:35.516Z,5.70
2019-03-12T02:39:20.520Z,5.60
2019-03-12T02:42:05.037Z,5.50
2019-03-12T02:44:50.077Z,5.60
2019-03-12T02:47:34.329Z,5.50
2019-03-12T02:50:19.396Z,5.40
2019-03-12T02:53:04.785Z,5.40
2019-03-12T02:56:01.801Z,5.20
2019-03-12T02:58:45.680Z,5.10
2019-03-12T03:01:39.013Z,5.20
2019-03-12T03:04:23.826Z,5.10
2019-03-12T03:07:14.926Z,5.10
2019-03-12T03:09:59.688Z,5.10
2019-03-12T03:12:44.614Z,5.00
2019-03-12T03:15:31.121Z,4.90
2019-03-12T03:18:15.780Z,5.00
2019-03-12T03:21:00.224Z,5.00
2019-03-12T03:23:45.149Z,5.00
2019-03-12T03:26:30.188Z,5.20
2019-03-12T03:29:14.924Z,5.30
2019-03-12T03:32:09.148Z,5.20
2019-03-12T03:34:54.276Z,5.00
2019-03-12T03:37:48.384Z,4.80
2019-03-12T03:40:33.117Z,4.70
2019-03-12T03:43:17.593Z,4.50
2019-03-12T03:46:02.816Z,4.50
2019-03-12T03:48:47.367Z,4.40
2019-03-12T03:51:31.608Z,4.20
2019-03-12T03:54:16.676Z,4.20
2019-03-12T03:57:01.172Z,4.30
2019-03-12T03:59:46.002Z,4.30
2019-03-12T04:02:30.912Z,4.20
2019-03-12T04:05:15.660Z,4.10
2019-03-12T04:08:00.874Z,3.90
2019-03-12T04:10:45.996Z,3.80
2019-03-12T04:13:30.789Z,3.80
2019-03-12T04:16:16.284Z,3.60
2019-03-12T04:19:00.956Z,3.50
2019-03-12T04:21:54.609Z,3.40
2019-03-12T04:24:39.725Z,3.30
2019-03-12T04:27:33.468Z,3.10
2019-03-12T04:30:17.965Z,3.10
2019-03-12T04:33:02.725Z,3.00
2019-03-12T04:35:48.105Z,2.90
2019-03-12T04:38:42.770Z,2.80
2019-03-12T04:41:36.820Z,2.80
2019-03-12T04:44:30.791Z,2.80
2019-03-12T04:47:15.888Z,2.70
2019-03-12T04:50:09.438Z,2.70
2019-03-12T04:52:54.296Z,2.60
2019-03-12T04:55:38.915Z,2.60
2019-03-12T04:58:23.578Z,2.60
2019-03-12T05:01:08.776Z,2.50
2019-03-12T05:03:53.812Z,2.50
2019-03-12T05:06:48.116Z,2.50
2019-03-12T05:09:43.650Z,2.40
2019-03-12T05:12:30.697Z,2.30
2019-03-12T05:15:14.564Z,2.20
2019-03-12T05:17:59.237Z,2.20
2019-03-12T05:20:44.388Z,2.10
2019-03-12T05:23:29.457Z,2.00
2019-03-12T05:26:13.931Z,2.00
2019-03-12T05:28:59.358Z,2.00
2019-03-12T05:31:53.164Z,1.90
2019-03-12T05:34:37.642Z,2.00
2019-03-12T05:37:22.992Z,2.00
2019-03-12T05:40:08.555Z,2.10
2019-03-12T05:42:53.276Z,2.10
2019-03-12T05:45:38.563Z,2.20
2019-03-12T05:48:22.915Z,2.10
2019-03-12T05:51:07.495Z,2.10
2019-03-12T05:54:00.925Z,2.10
2019-03-12T05:56:45.414Z,2.10
2019-03-12T05:59:30.337Z,2.10
2019-03-12T06:02:15.048Z,2.00
2019-03-12T06:04:59.912Z,2.10
2019-03-12T06:07:44.451Z,2.00
2019-03-12T06:10:28.951Z,2.00
2019-03-12T06:13:13.452Z,2.10
2019-03-12T06:16:07.341Z,2.10
2019-03-12T06:19:00.760Z,2.10
2019-03-12T06:21:45.746Z,2.10
2019-03-12T06:24:30.730Z,2.10
2019-03-12T06:27:18.125Z,2.20
2019-03-12T06:30:02.355Z,2.20
2019-03-12T06:33:01.087Z,2.40
2019-03-12T06:39:57.972Z,2.60
2019-03-12T06:43:01.548Z,2.70
2019-03-12T06:46:27.973Z,2.80
2019-03-12T06:49:17.402Z,2.80
2019-03-12T06:56:01.480Z,2.90
2019-03-12T07:02:04.946Z,3.00
2019-03-12T07:08:13.428Z,3.20
2019-03-12T07:11:16.988Z,3.30
2019-03-12T07:14:26.884Z,3.50
2019-03-12T07:17:46.558Z,3.80
2019-03-12T07:21:10.668Z,4.00
2019-03-12T07:24:31.338Z,4.30
2019-03-12T07:27:26.976Z,4.50
2019-03-12T07:30:30.401Z,4.70
2019-03-12T07:40:11.152Z,5.10
2019-03-12T07:43:02.324Z,5.10
2019-03-12T07:45:52.331Z,5.30
2019-03-12T07:48:56.632Z,5.40
2019-03-12T07:52:20.045Z,5.50
2019-03-12T07:55:23.521Z,5.60
2019-03-12T07:58:17.979Z,5.60
2019-03-12T08:05:08.588Z,5.70
2019-03-12T08:08:22.924Z,5.80
2019-03-12T08:11:26.509Z,5.80
2019-03-12T08:14:30.116Z,5.90
2019-03-12T08:17:50.140Z,6.00
2019-03-12T08:24:14.733Z,6.20
2019-03-12T08:27:38.115Z,6.60
2019-03-12T08:37:19.152Z,6.90
2019-03-12T08:43:34.779Z,7.20
2019-03-12T08:50:35.739Z,7.30
2019-03-12T08:53:52.072Z,7.50
2019-03-12T08:56:59.065Z,7.70
2019-03-12T09:00:07.045Z,7.90
2019-03-12T09:03:30.058Z,8.00
2019-03-12T09:06:33.581Z,8.10
2019-03-12T09:09:37.493Z,8.10
2019-03-12T09:12:59.732Z,8.30
2019-03-12T09:19:43.036Z,8.70
2019-03-12T09:22:50.089Z,9.10
2019-03-12T09:29:02.318Z,9.50
2019-03-12T09:35:18.578Z,9.70
2019-03-12T09:38:28.136Z,9.80
2019-03-12T09:41:51.508Z,9.90
2019-03-12T09:44:49.195Z,10.30
2019-03-12T09:51:27.519Z,10.60
2019-03-12T09:54:31.197Z,10.80
2019-03-12T09:57:34.936Z,10.90
2019-03-12T10:00:55.813Z,10.90
2019-03-12T10:03:59.609Z,11.00
2019-03-12T10:07:03.380Z,11.10
2019-03-12T10:10:04.826Z,11.20
2019-03-12T10:13:16.679Z,11.50
2019-03-12T10:16:38.860Z,11.80
2019-03-12T10:19:29.887Z,12.10
2019-03-12T10:22:25.496Z,12.30
2019-03-12T10:25:29.102Z,12.50
2019-03-12T10:28:47.795Z,12.60
2019-03-12T10:32:05.337Z,12.70
2019-03-12T10:35:34.096Z,12.80
2019-03-12T10:38:55.102Z,13.00
2019-03-12T10:44:48.896Z,13.00
2019-03-12T10:47:34.796Z,13.30
2019-03-12T10:50:19.550Z,13.50
2019-03-12T10:53:04.671Z,13.80
2019-03-12T10:55:49.561Z,13.70
2019-03-12T10:58:36.036Z,13.80
2019-03-12T11:01:20.504Z,14.00
2019-03-12T11:04:05.661Z,14.10
2019-03-12T11:06:50.240Z,14.30
2019-03-12T11:09:35.416Z,14.50
2019-03-12T11:12:29.425Z,14.60
2019-03-12T11:15:14.501Z,14.60
2019-03-12T11:18:08.001Z,14.50
2019-03-12T11:20:52.686Z,14.70
2019-03-12T11:23:37.209Z,14.80
2019-03-12T11:26:21.780Z,14.90
2019-03-12T11:29:06.759Z,15.00
2019-03-12T11:31:51.371Z,14.90
2019-03-12T11:34:38.461Z,14.70
2019-03-12T11:37:31.869Z,14.50
2019-03-12T11:40:25.726Z,14.60
2019-03-12T11:43:12.137Z,14.50
2019-03-12T11:46:06.008Z,14.40
2019-03-12T11:48:50.676Z,14.40
2019-03-12T11:51:36.373Z,14.20
2019-03-12T11:54:21.215Z,14.20
2019-03-12T11:57:06.036Z,14.00
2019-03-12T12:00:01.371Z,14.00
2019-03-12T12:02:59.394Z,13.90
2019-03-12T12:05:33.908Z,13.80
2019-03-12T12:08:27.621Z,13.80
2019-03-12T12:11:12.220Z,14.00
2019-03-12T12:13:57.224Z,14.00
2019-03-12T12:16:42.428Z,13.80
2019-03-12T12:19:36.240Z,13.60
2019-03-12T12:22:20.593Z,13.80
2019-03-12T12:25:05.482Z,13.60
2019-03-12T12:27:50.001Z,13.40
2019-03-12T12:30:35.244Z,13.20
2019-03-12T12:33:19.789Z,13.10
2019-03-12T12:36:04.568Z,13.50
2019-03-12T12:38:48.924Z,13.80
2019-03-12T12:41:45.471Z,14.00
2019-03-12T12:44:29.773Z,14.10
2019-03-12T12:47:16.121Z,14.10
2019-03-12T12:50:00.580Z,14.30
2019-03-12T12:52:45.607Z,14.70
2019-03-12T12:55:30.196Z,15.10
2019-03-12T12:58:14.483Z,15.50
2019-03-12T13:01:09.052Z,15.80
2019-03-12T13:03:54.048Z,16.00
2019-03-12T13:06:39.124Z,15.90
2019-03-12T13:09:23.738Z,15.80
2019-03-12T13:12:09.056Z,15.70
2019-03-12T13:14:54.044Z,15.80
2019-03-12T13:17:39.002Z,15.80
2019-03-12T13:20:33.156Z,15.70
2019-03-12T13:23:27.508Z,15.80
2019-03-12T13:26:20.899Z,15.50
2019-03-12T13:29:05.980Z,14.80
2019-03-12T13:31:50.656Z,14.10
2019-03-12T13:34:35.936Z,13.70
2019-03-12T13:37:29.681Z,13.50
2019-03-12T13:40:14.572Z,13.80
2019-03-12T13:42:59.446Z,13.70
2019-03-12T13:45:53.548Z,13.40
2019-03-12T13:48:38.400Z,13.30
2019-03-12T13:51:22.880Z,13.40
2019-03-12T13:54:09.801Z,13.40
2019-03-12T13:56:54.505Z,13.30
2019-03-12T13:59:48.473Z,13.00
2019-03-12T14:02:33.284Z,12.90
2019-03-12T14:05:18.173Z,12.70
2019-03-12T14:08:02.680Z,12.80
2019-03-12T14:10:45.879Z,13.00
2019-03-12T14:17:08.314Z,13.00
2019-03-12T14:20:00.958Z,13.20
2019-03-12T14:22:45.883Z,13.30
2019-03-12T14:25:31.008Z,13.30
2019-03-12T14:28:24.785Z,13.50
2019-03-12T14:31:09.512Z,13.70
2019-03-12T14:33:54.272Z,13.40
2019-03-12T14:36:48.650Z,13.30
2019-03-12T14:39:42.795Z,13.40
2019-03-12T14:42:36.887Z,13.50
2019-03-12T14:45:21.735Z,13.80
2019-03-12T14:48:15.881Z,14.20
2019-03-12T14:51:15.850Z,14.40
2019-03-12T14:54:00.484Z,14.50
2019-03-12T14:56:45.308Z,14.40
2019-03-12T14:59:30.535Z,14.60
2019-03-12T15:02:14.984Z,14.60
2019-03-12T15:04:59.987Z,14.70
2019-03-12T15:07:44.708Z,14.70
2019-03-12T15:10:29.663Z,14.80
2019-03-12T15:13:13.984Z,14.80
2019-03-12T15:15:58.784Z,14.70
2019-03-12T15:18:43.804Z,14.70
2019-03-12T15:21:29.073Z,14.80
2019-03-12T15:24:23.011Z,14.90
2019-03-12T15:27:07.691Z,14.90
2019-03-12T15:29:52.608Z,14.60
2019-03-12T15:32:37.461Z,14.30
2019-03-12T15:35:22.513Z,13.90
2019-03-12T15:38:16.684Z,13.60
2019-03-12T15:41:10.290Z,13.20
2019-03-12T15:43:55.040Z,12.90
2019-03-12T15:46:39.750Z,12.80
2019-03-12T15:49:24.879Z,12.60
2019-03-12T15:52:10.286Z,12.50
2019-03-12T15:55:04.017Z,12.30
2019-03-12T15:57:58.116Z,12.30
2019-03-12T16:00:53.952Z,12.20
2019-03-12T16:03:47.774Z,12.40
2019-03-12T16:06:32.332Z,12.20
2019-03-12T16:09:17.449Z,12.10
2019-03-12T16:12:02.441Z,12.20
2019-03-12T16:14:55.968Z,12.20
2019-03-12T16:17:41.258Z,12.20
2019-03-12T16:20:34.964Z,12.00
2019-03-12T16:23:19.668Z,12.10
2019-03-12T16:26:04.521Z,12.10
2019-03-12T16:28:49.671Z,12.00
2019-03-12T16:31:35.299Z,11.90
2019-03-12T16:34:20.429Z,11.90
2019-03-12T16:37:05.018Z,12.00
2019-03-12T16:39:49.860Z,11.90
2019-03-12T16:42:35.451Z,11.80
2019-03-12T16:45:28.920Z,11.80
2019-03-12T16:48:13.604Z,11.80
2019-03-12T16:50:58.591Z,11.70
2019-03-12T16:53:42.976Z,11.50
2019-03-12T16:56:28.146Z,11.40
2019-03-12T16:59:12.425Z,11.40
2019-03-12T17:02:05.943Z,11.30
2019-03-12T17:04:50.592Z,11.20
2019-03-12T17:07:35.038Z,11.10
2019-03-12T17:10:20.129Z,11.10
2019-03-12T17:13:05.253Z,11.00
2019-03-12T17:15:54.614Z,11.10
2019-03-12T17:18:38.287Z,11.10
2019-03-12T17:21:33.003Z,11.00
2019-03-12T17:24:17.696Z,10.90
2019-03-12T17:27:11.220Z,10.80
2019-03-12T17:29:55.965Z,10.80
2019-03-12T17:32:41.137Z,10.70
2019-03-12T17:35:34.970Z,10.70
2019-03-12T17:38:20.240Z,10.60
2019-03-12T17:41:13.705Z,10.60
2019-03-12T17:43:58.704Z,10.70
2019-03-12T17:46:43.386Z,10.60
2019-03-12T17:49:28.552Z,10.60
2019-03-12T17:52:22.420Z,10.60
2019-03-12T17:55:07.389Z,10.60
2019-03-12T17:57:52.280Z,10.50
2019-03-12T18:00:46.789Z,10.40
2019-03-12T18:03:40.704Z,10.40
2019-03-12T18:06:35.208Z,10.40
2019-03-12T18:09:19.949Z,10.30
2019-03-12T18:12:04.568Z,10.20
2019-03-12T18:14:57.884Z,10.20
2019-03-12T18:17:42.568Z,10.20
2019-03-12T18:20:27.628Z,10.20
2019-03-12T18:23:12.632Z,10.10
2019-03-12T18:25:57.806Z,10.10
2019-03-12T18:28:51.341Z,10.00
2019-03-12T18:31:36.200Z,10.00
2019-03-12T18:34:21.072Z,9.90
2019-03-12T18:37:06.224Z,9.90
2019-03-12T18:39:59.672Z,9.90
2019-03-12T18:42:44.497Z,9.90
2019-03-12T18:45:29.203Z,9.90
2019-03-12T18:48:14.464Z,9.90
2019-03-12T18:50:58.835Z,9.80
2019-03-12T18:53:43.972Z,9.80
2019-03-12T18:56:28.860Z,9.70
2019-03-12T18:59:13.336Z,9.70
2019-03-12T19:01:57.952Z,9.60
2019-03-12T19:04:42.387Z,9.60
2019-03-12T19:07:35.672Z,9.60
2019-03-12T19:10:20.838Z,9.50
2019-03-12T19:13:14.524Z,9.50
2019-03-12T19:15:59.353Z,9.50
2019-03-12T19:18:43.927Z,9.50
2019-03-12T19:21:28.396Z,9.50
2019-03-12T19:24:13.132Z,9.60
2019-03-12T19:26:59.613Z,9.60
2019-03-12T19:29:44.372Z,9.70
2019-03-12T19:36:09.527Z,9.70
2019-03-12T19:39:03.896Z,9.60
2019-03-12T19:41:59.841Z,9.70
2019-03-12T19:44:53.746Z,9.60
2019-03-12T19:47:39.880Z,9.60
2019-03-12T19:50:24.460Z,9.60
2019-03-12T19:53:09.725Z,9.60
2019-03-12T19:55:54.420Z,9.60
2019-03-12T19:58:39.127Z,9.60
2019-03-12T20:01:23.904Z,9.70
2019-03-12T20:04:08.544Z,9.60
2019-03-12T20:06:53.624Z,9.60
2019-03-12T20:09:38.559Z,9.60
2019-03-12T20:12:23.107Z,9.60
2019-03-12T20:15:07.765Z,9.60
2019-03-12T20:17:52.640Z,9.60
2019-03-12T20:20:38.820Z,9.70
2019-03-12T20:23:24.044Z,9.70
2019-03-12T20:26:09.360Z,9.60
2019-03-12T20:29:02.755Z,9.60
2019-03-12T20:31:49.231Z,9.60
2019-03-12T20:34:33.971Z,9.60
2019-03-12T20:37:18.642Z,9.50
2019-03-12T20:40:03.888Z,9.50
2019-03-12T20:42:50.958Z,9.50
2019-03-12T20:45:36.836Z,9.60
2019-03-12T20:48:21.259Z,9.60
2019-03-12T20:51:06.459Z,9.50
2019-03-12T20:57:19.812Z,9.50
2019-03-12T21:00:13.290Z,9.40
2019-03-12T21:02:59.978Z,9.60
2019-03-12T21:05:53.708Z,9.50
2019-03-12T21:08:38.728Z,9.50
2019-03-12T21:11:23.531Z,9.60
2019-03-12T21:14:08.852Z,9.60
2019-03-12T21:17:02.444Z,9.60
2019-03-12T21:19:47.360Z,9.60
2019-03-12T21:22:41.156Z,9.60
2019-03-12T21:25:25.897Z,9.70
2019-03-12T21:28:10.472Z,9.70
2019-03-12T21:30:55.328Z,9.70
2019-03-12T21:33:40.764Z,9.70
2019-03-12T21:36:34.818Z,9.80
2019-03-12T21:39:28.789Z,9.80
2019-03-12T21:42:13.541Z,9.80
2019-03-12T21:44:58.778Z,9.90
2019-03-12T21:47:52.422Z,10.00
2019-03-12T21:50:37.567Z,10.10
2019-03-12T21:53:31.657Z,10.10
2019-03-12T21:56:25.668Z,10.10
2019-03-12T21:59:10.092Z,10.00
2019-03-12T22:01:54.864Z,10.10
2019-03-12T22:04:39.814Z,10.10
2019-03-12T22:07:24.624Z,10.00
2019-03-12T22:10:09.283Z,10.00
2019-03-12T22:12:54.079Z,10.00
2019-03-12T22:15:38.868Z,10.00
2019-03-12T22:18:24.224Z,10.00
2019-03-12T22:21:08.799Z,10.10
2019-03-12T22:23:53.864Z,10.20
2019-03-12T22:26:48.649Z,10.10
2019-03-12T22:29:33.816Z,10.20
2019-03-12T22:32:18.981Z,10.30
2019-03-12T22:35:13.092Z,10.30
2019-03-12T22:38:06.449Z,10.50
2019-03-12T22:40:51.609Z,10.70
2019-03-12T22:43:36.680Z,10.70
2019-03-12T22:46:21.495Z,10.70
2019-03-12T22:49:15.357Z,10.80
2019-03-12T22:52:00.100Z,10.80
2019-03-12T22:54:45.068Z,11.00
2019-03-12T22:57:29.247Z,11.00
2019-03-12T23:00:38.020Z,11.10
2019-03-12T23:03:42.024Z,11.00
2019-03-12T23:06:45.716Z,11.10
2019-03-12T23:09:58.784Z,11.20
2019-03-12T23:12:55.100Z,11.30
2019-03-12T23:15:40.740Z,11.30
2019-03-12T23:18:25.707Z,11.40
2019-03-12T23:21:10.624Z,11.40
2019-03-12T23:23:55.282Z,11.50
2019-03-12T23:26:49.660Z,11.50
2019-03-12T23:29:35.196Z,11.60
2019-03-12T23:32:28.805Z,11.60
2019-03-12T23:35:13.302Z,11.60
2019-03-12T23:37:57.691Z,11.60
2019-03-12T23:40:42.872Z,11.60
2019-03-12T23:43:28.516Z,11.60
2019-03-12T23:46:21.925Z,11.60
2019-03-12T23:49:06.672Z,11.60
2019-03-12T23:51:51.456Z,11.70
2019-03-12T23:54:36.520Z,11.70
2019-03-12T23:57:21.448Z,11.60
